createdAt,value
2018-05-15T00:02:02.088Z,44.70
2018-05-15T00:04:29.713Z,45.00
2018-05-15T00:06:57.191Z,45.20
2018-05-15T00:09:24.769Z,45.40
2018-05-15T00:11:52.528Z,45.70
2018-05-15T00:14:20.173Z,46.00
2018-05-15T00:16:47.724Z,46.20
2018-05-15T00:19:15.194Z,46.40
2018-05-15T00:21:42.965Z,46.50
2018-05-15T00:24:10.600Z,46.80
2018-05-15T00:26:38.180Z,47.40
2018-05-15T00:29:05.658Z,48.00
2018-05-15T00:31:33.109Z,48.60
2018-05-15T00:34:00.861Z,49.20
2018-05-15T00:36:28.325Z,49.60
2018-05-15T00:38:55.946Z,49.80
2018-05-15T00:41:23.547Z,50.10
2018-05-15T00:43:51.313Z,50.40
2018-05-15T00:46:18.777Z,50.70
2018-05-15T00:48:46.537Z,51.00
2018-05-15T00:51:13.997Z,51.20
2018-05-15T00:53:41.772Z,51.50
2018-05-15T00:56:09.336Z,51.80
2018-05-15T00:58:37.910Z,52.30
2018-05-15T01:01:05.362Z,52.20
2018-05-15T01:03:33.020Z,52.40
2018-05-15T01:06:00.480Z,53.10
2018-05-15T01:08:27.937Z,52.80
2018-05-15T01:10:55.408Z,52.80
2018-05-15T01:13:22.937Z,52.90
2018-05-15T01:15:50.416Z,53.00
2018-05-15T01:18:18.158Z,53.20
2018-05-15T01:20:45.937Z,53.30
2018-05-15T01:23:13.572Z,53.30
2018-05-15T01:25:41.148Z,53.50
2018-05-15T01:28:08.636Z,53.50
2018-05-15T01:30:36.268Z,53.50
2018-05-15T01:33:03.745Z,53.50
2018-05-15T01:35:31.212Z,53.60
2018-05-15T01:37:58.675Z,53.70
2018-05-15T01:40:26.120Z,53.80
2018-05-15T01:42:53.581Z,53.90
2018-05-15T01:45:21.032Z,53.90
2018-05-15T01:47:48.492Z,54.20
2018-05-15T01:50:15.957Z,54.40
2018-05-15T01:52:43.491Z,54.60
2018-05-15T01:55:11.154Z,54.90
2018-05-15T01:57:38.629Z,55.20
2018-05-15T02:00:06.081Z,55.20
2018-05-15T02:02:33.549Z,55.30
2018-05-15T02:05:01.008Z,55.40
2018-05-15T02:07:28.474Z,55.50
2018-05-15T02:09:55.934Z,55.70
2018-05-15T02:12:23.399Z,55.70
2018-05-15T02:14:50.895Z,55.80
2018-05-15T02:17:18.354Z,55.90
2018-05-15T02:19:45.817Z,56.00
2018-05-15T02:22:13.277Z,56.00
2018-05-15T02:24:41.033Z,56.20
2018-05-15T02:27:08.659Z,56.30
2018-05-15T02:29:36.117Z,56.40
2018-05-15T02:32:04.621Z,56.70
2018-05-15T02:34:32.080Z,56.70
2018-05-15T02:36:59.767Z,56.80
2018-05-15T02:39:27.305Z,56.80
2018-05-15T02:41:54.937Z,56.90
2018-05-15T02:44:22.440Z,56.90
2018-05-15T02:46:50.167Z,57.00
2018-05-15T02:49:17.637Z,57.20
2018-05-15T02:51:45.119Z,57.30
2018-05-15T02:54:12.673Z,57.40
2018-05-15T02:56:40.434Z,57.40
2018-05-15T02:59:08.060Z,57.40
2018-05-15T03:01:35.528Z,57.50
2018-05-15T03:04:02.985Z,57.70
2018-05-15T03:06:30.501Z,57.80
2018-05-15T03:08:57.968Z,57.90
2018-05-15T03:11:25.477Z,58.10
2018-05-15T03:13:52.938Z,58.10
2018-05-15T03:16:20.684Z,58.30
2018-05-15T03:18:48.148Z,58.50
2018-05-15T03:21:15.804Z,58.60
2018-05-15T03:23:43.272Z,58.50
2018-05-15T03:26:10.819Z,58.70
2018-05-15T03:28:38.282Z,58.60
2018-05-15T03:31:05.929Z,58.70
2018-05-15T03:33:33.408Z,58.80
2018-05-15T03:36:00.960Z,58.80
2018-05-15T03:38:28.724Z,58.90
2018-05-15T03:40:56.488Z,59.10
2018-05-15T03:43:24.144Z,59.30
2018-05-15T03:45:51.585Z,59.40
2018-05-15T03:48:19.048Z,59.30
2018-05-15T03:50:46.533Z,59.50
2018-05-15T03:53:14.000Z,59.50
2018-05-15T03:55:41.460Z,59.40
2018-05-15T03:58:08.920Z,59.40
2018-05-15T04:00:48.118Z,59.40
2018-05-15T04:03:27.561Z,59.50
2018-05-15T04:06:07.314Z,59.50
2018-05-15T04:08:35.010Z,59.50
2018-05-15T04:11:02.473Z,59.70
2018-05-15T04:13:29.914Z,59.70
2018-05-15T04:15:57.360Z,59.70
2018-05-15T04:18:24.816Z,59.70
2018-05-15T04:20:53.862Z,59.60
2018-05-15T04:23:21.323Z,59.70
2018-05-15T04:25:48.805Z,59.60
2018-05-15T04:28:16.373Z,59.50
2018-05-15T04:30:43.933Z,59.40
2018-05-15T04:33:11.474Z,59.30
2018-05-15T04:35:39.139Z,59.20
2018-05-15T04:38:06.598Z,59.20
2018-05-15T04:40:34.073Z,59.00
2018-05-15T04:43:01.595Z,59.00
2018-05-15T04:45:29.376Z,58.80
2018-05-15T04:47:57.149Z,58.70
2018-05-15T04:50:24.781Z,58.50
2018-05-15T04:52:52.320Z,58.60
2018-05-15T04:55:19.828Z,58.30
2018-05-15T04:57:47.500Z,58.20
2018-05-15T05:00:14.982Z,58.20
2018-05-15T05:02:42.437Z,58.20
2018-05-15T05:05:09.906Z,58.20
2018-05-15T05:07:37.416Z,58.20
2018-05-15T05:10:04.919Z,58.20
2018-05-15T05:12:32.406Z,58.10
2018-05-15T05:15:00.005Z,57.80
2018-05-15T05:17:27.576Z,57.80
2018-05-15T05:19:55.250Z,57.50
2018-05-15T05:22:22.746Z,57.30
2018-05-15T05:24:50.384Z,57.10
2018-05-15T05:27:17.947Z,56.80
2018-05-15T05:29:45.624Z,56.60
2018-05-15T05:32:13.307Z,56.20
2018-05-15T05:34:40.816Z,55.70
2018-05-15T05:37:08.478Z,55.10
2018-05-15T05:39:36.045Z,54.80
2018-05-15T05:42:03.817Z,54.30
2018-05-15T05:44:31.310Z,53.90
2018-05-15T05:46:58.896Z,54.30
2018-05-15T05:49:26.632Z,53.50
2018-05-15T05:51:54.114Z,53.30
2018-05-15T05:54:21.586Z,53.00
2018-05-15T05:56:49.077Z,52.70
2018-05-15T05:59:16.575Z,52.40
2018-05-15T06:01:44.241Z,52.20
2018-05-15T06:04:11.972Z,52.10
2018-05-15T06:06:39.747Z,51.80
2018-05-15T06:09:07.262Z,51.50
2018-05-15T06:11:34.781Z,51.40
2018-05-15T06:14:02.453Z,51.20
2018-05-15T06:16:29.922Z,51.70
2018-05-15T06:18:57.466Z,50.90
2018-05-15T06:21:25.031Z,50.70
2018-05-15T06:23:52.524Z,50.40
2018-05-15T06:26:20.001Z,50.50
2018-05-15T06:28:47.540Z,50.40
2018-05-15T06:31:15.037Z,50.20
2018-05-15T06:33:42.717Z,50.20
2018-05-15T06:36:10.185Z,50.20
2018-05-15T06:38:37.807Z,50.10
2018-05-15T06:41:05.988Z,49.60
2018-05-15T06:43:33.710Z,49.60
2018-05-15T06:46:01.214Z,49.50
2018-05-15T06:48:28.828Z,49.30
2018-05-15T06:50:56.342Z,49.10
2018-05-15T06:53:23.917Z,49.00
2018-05-15T06:55:51.437Z,48.90
2018-05-15T06:58:18.962Z,48.80
2018-05-15T07:00:46.566Z,48.60
2018-05-15T07:03:14.239Z,48.60
2018-05-15T07:05:41.833Z,49.10
2018-05-15T07:08:09.548Z,48.40
2018-05-15T07:10:37.005Z,48.30
2018-05-15T07:13:04.461Z,48.30
2018-05-15T07:15:32.024Z,48.10
2018-05-15T07:17:59.560Z,48.00
2018-05-15T07:20:27.020Z,47.80
2018-05-15T07:22:54.477Z,47.70
2018-05-15T07:25:21.972Z,47.60
2018-05-15T07:27:49.521Z,47.40
2018-05-15T07:30:17.019Z,47.20
2018-05-15T07:32:44.485Z,46.90
2018-05-15T07:35:12.101Z,46.80
2018-05-15T07:37:39.636Z,46.90
2018-05-15T07:40:07.415Z,46.80
2018-05-15T07:42:35.044Z,46.90
2018-05-15T07:45:02.638Z,47.10
2018-05-15T07:47:30.389Z,46.90
2018-05-15T07:49:58.045Z,46.70
2018-05-15T07:52:25.513Z,46.40
2018-05-15T07:54:53.068Z,46.30
2018-05-15T07:57:20.743Z,46.00
2018-05-15T07:59:48.238Z,45.90
2018-05-15T08:02:15.685Z,45.80
2018-05-15T08:04:43.208Z,45.60
2018-05-15T08:07:10.672Z,46.10
2018-05-15T08:09:38.424Z,45.30
2018-05-15T08:12:05.892Z,45.30
2018-05-15T08:14:33.645Z,45.30
2018-05-15T08:17:01.100Z,45.20
2018-05-15T08:19:28.556Z,45.10
2018-05-15T08:21:56.033Z,44.80
2018-05-15T08:24:23.772Z,44.70
2018-05-15T08:26:51.246Z,44.40
2018-05-15T08:29:18.806Z,44.10
2018-05-15T08:31:46.389Z,43.80
2018-05-15T08:34:13.841Z,43.70
2018-05-15T08:36:41.336Z,43.60
2018-05-15T08:39:08.827Z,43.50
2018-05-15T08:41:36.286Z,43.40
2018-05-15T08:44:03.736Z,43.20
2018-05-15T08:46:31.212Z,43.10
2018-05-15T08:48:58.701Z,43.00
2018-05-15T08:51:26.334Z,42.90
2018-05-15T08:53:53.877Z,42.80
2018-05-15T08:56:21.352Z,42.60
2018-05-15T08:58:48.816Z,42.60
2018-05-15T09:01:16.544Z,42.60
2018-05-15T09:03:44.052Z,42.50
2018-05-15T09:06:11.562Z,42.50
2018-05-15T09:08:39.096Z,42.30
2018-05-15T09:11:06.692Z,42.10
2018-05-15T09:13:34.486Z,42.10
2018-05-15T09:16:01.990Z,42.10
2018-05-15T09:18:29.700Z,42.00
2018-05-15T09:20:58.672Z,42.00
2018-05-15T09:23:26.511Z,41.80
2018-05-15T09:25:54.776Z,41.80
2018-05-15T09:28:22.444Z,41.90
2018-05-15T09:30:50.749Z,41.80
2018-05-15T09:33:18.221Z,41.60
2018-05-15T09:35:46.483Z,41.50
2018-05-15T09:38:13.970Z,41.40
2018-05-15T09:40:41.694Z,41.30
2018-05-15T09:43:09.168Z,41.20
2018-05-15T09:45:38.156Z,40.40
2018-05-15T09:48:05.763Z,40.40
2018-05-15T09:50:33.232Z,40.30
2018-05-15T09:53:00.736Z,40.20
2018-05-15T09:55:28.192Z,40.20
2018-05-15T09:57:55.728Z,39.90
2018-05-15T10:00:28.796Z,39.70
2018-05-15T10:02:56.244Z,39.50
2018-05-15T10:05:23.727Z,39.10
2018-05-15T10:07:51.209Z,38.90
2018-05-15T10:10:19.125Z,38.70
2018-05-15T10:12:46.601Z,38.70
2018-05-15T10:15:14.074Z,38.30
2018-05-15T10:17:41.536Z,38.30
2018-05-15T10:20:09.117Z,38.20
2018-05-15T10:22:37.598Z,38.20
2018-05-15T10:25:05.089Z,38.20
2018-05-15T10:27:32.533Z,38.00
2018-05-15T10:30:00.094Z,38.00
2018-05-15T10:32:27.530Z,38.20
2018-05-15T10:34:55.236Z,38.20
2018-05-15T10:37:22.769Z,38.20
2018-05-15T10:39:50.182Z,38.00
2018-05-15T10:42:17.984Z,37.70
2018-05-15T10:44:45.700Z,37.50
2018-05-15T10:47:13.166Z,37.40
2018-05-15T10:49:40.621Z,37.10
2018-05-15T10:52:08.141Z,36.90
2018-05-15T10:54:35.846Z,36.60
2018-05-15T10:57:03.300Z,36.40
2018-05-15T10:59:31.102Z,36.40
2018-05-15T11:01:58.792Z,36.30
2018-05-15T11:04:26.249Z,35.90
2018-05-15T11:06:53.744Z,35.70
2018-05-15T11:09:21.212Z,35.60
2018-05-15T11:11:48.673Z,35.70
2018-05-15T11:14:16.116Z,35.80
2018-05-15T11:16:43.585Z,35.90
2018-05-15T11:19:22.870Z,35.90
2018-05-15T11:22:03.052Z,36.10
2018-05-15T11:27:27.536Z,35.60
2018-05-15T11:29:54.987Z,35.50
2018-05-15T11:32:22.538Z,35.30
2018-05-15T11:34:49.984Z,35.50
2018-05-15T11:37:17.438Z,35.40
2018-05-15T11:39:44.889Z,35.40
2018-05-15T11:42:12.376Z,35.70
2018-05-15T11:44:39.828Z,36.00
2018-05-15T11:47:07.294Z,36.30
2018-05-15T11:49:35.318Z,36.70
2018-05-15T11:52:03.147Z,36.90
2018-05-15T11:54:30.037Z,37.10
2018-05-15T11:56:57.568Z,37.30
2018-05-15T11:59:25.008Z,37.50
2018-05-15T12:01:52.478Z,37.60
2018-05-15T12:04:20.157Z,37.80
2018-05-15T12:06:47.605Z,37.90
2018-05-15T12:09:15.144Z,37.90
2018-05-15T12:11:42.604Z,37.80
2018-05-15T12:14:10.370Z,37.80
2018-05-15T12:16:37.928Z,37.80
2018-05-15T12:19:05.392Z,37.80
2018-05-15T12:21:33.065Z,37.80
2018-05-15T12:24:00.743Z,37.80
2018-05-15T12:26:28.193Z,37.70
2018-05-15T12:28:55.641Z,37.50
2018-05-15T12:31:23.100Z,37.50
2018-05-15T12:33:50.660Z,37.40
2018-05-15T12:36:18.195Z,37.30
2018-05-15T12:38:45.716Z,37.30
2018-05-15T12:41:13.295Z,37.30
2018-05-15T12:43:40.925Z,37.20
2018-05-15T12:46:08.844Z,37.10
2018-05-15T12:48:36.491Z,37.00
2018-05-15T12:51:04.032Z,36.90
2018-05-15T12:53:31.630Z,36.90
2018-05-15T12:55:59.317Z,37.00
2018-05-15T12:58:26.996Z,36.90
2018-05-15T13:00:54.460Z,36.70
2018-05-15T13:03:21.905Z,36.40
2018-05-15T13:05:49.421Z,36.30
2018-05-15T13:08:17.140Z,36.20
2018-05-15T13:10:44.620Z,36.10
2018-05-15T13:13:12.101Z,36.00
2018-05-15T13:15:41.360Z,36.00
2018-05-15T13:18:08.829Z,36.00
2018-05-15T13:20:36.304Z,36.00
2018-05-15T13:23:04.403Z,36.20
2018-05-15T13:25:33.072Z,35.80
2018-05-15T13:28:00.540Z,35.80
2018-05-15T13:30:28.016Z,35.70
2018-05-15T13:32:55.599Z,35.70
2018-05-15T13:35:23.159Z,35.80
2018-05-15T13:37:50.524Z,36.00
2018-05-15T13:40:18.163Z,36.10
2018-05-15T13:42:45.872Z,36.10
2018-05-15T13:45:13.329Z,36.10
2018-05-15T13:47:40.901Z,36.00
2018-05-15T13:50:08.453Z,35.90
2018-05-15T13:52:35.963Z,35.70
2018-05-15T13:55:03.412Z,35.50
2018-05-15T13:57:30.881Z,35.60
2018-05-15T13:59:58.385Z,35.70
2018-05-15T14:02:26.157Z,35.80
2018-05-15T14:04:54.436Z,35.70
2018-05-15T14:07:21.973Z,35.70
2018-05-15T14:09:49.740Z,35.50
2018-05-15T14:12:17.192Z,35.40
2018-05-15T14:14:44.975Z,35.50
2018-05-15T14:17:12.417Z,35.20
2018-05-15T14:19:39.882Z,35.10
2018-05-15T14:22:09.049Z,35.30
2018-05-15T14:24:36.649Z,35.30
2018-05-15T14:27:04.101Z,35.50
2018-05-15T14:29:31.884Z,35.50
2018-05-15T14:31:59.660Z,35.80
2018-05-15T14:34:27.207Z,36.00
2018-05-15T14:36:55.488Z,36.40
2018-05-15T14:39:23.232Z,36.40
2018-05-15T14:42:05.100Z,36.90
2018-05-15T14:44:32.604Z,36.90
2018-05-15T14:47:00.313Z,37.10
2018-05-15T14:49:27.841Z,37.30
2018-05-15T14:51:55.321Z,37.50
2018-05-15T14:54:22.916Z,37.40
2018-05-15T14:56:50.411Z,37.50
2018-05-15T14:59:17.918Z,37.50
2018-05-15T15:01:45.414Z,37.10
2018-05-15T15:04:12.878Z,37.00
2018-05-15T15:06:40.427Z,37.10
2018-05-15T15:09:08.689Z,37.10
2018-05-15T15:11:36.260Z,37.10
2018-05-15T15:14:04.012Z,37.20
2018-05-15T15:16:31.481Z,37.10
2018-05-15T15:18:59.755Z,37.30
2018-05-15T15:21:27.244Z,37.30
2018-05-15T15:23:54.720Z,37.60
2018-05-15T15:26:22.224Z,37.90
2018-05-15T15:28:50.481Z,38.30
2018-05-15T15:31:17.933Z,38.30
2018-05-15T15:33:45.397Z,38.40
2018-05-15T15:36:12.865Z,38.50
2018-05-15T15:38:40.353Z,38.70
2018-05-15T15:41:07.857Z,38.60
2018-05-15T15:43:35.389Z,38.60
2018-05-15T15:46:02.919Z,38.50
2018-05-15T15:48:30.439Z,38.50
2018-05-15T15:50:57.961Z,38.40
2018-05-15T15:53:25.505Z,38.30
2018-05-15T15:55:53.008Z,38.40
2018-05-15T15:58:20.500Z,38.50
2018-05-15T16:00:47.941Z,38.80
2018-05-15T16:03:15.405Z,39.10
2018-05-15T16:05:42.865Z,39.70
2018-05-15T16:08:10.313Z,40.20
2018-05-15T16:10:37.777Z,41.00
2018-05-15T16:13:05.232Z,41.90
2018-05-15T16:15:32.763Z,42.90
2018-05-15T16:18:00.140Z,44.20
2018-05-15T16:20:27.601Z,45.20
2018-05-15T16:22:55.053Z,46.30
2018-05-15T16:25:22.555Z,47.30
2018-05-15T16:27:50.018Z,48.30
2018-05-15T16:30:17.482Z,49.00
2018-05-15T16:32:44.936Z,49.80
2018-05-15T16:35:12.401Z,50.50
2018-05-15T16:37:39.892Z,51.30
2018-05-15T16:40:07.296Z,52.10
2018-05-15T16:42:34.757Z,52.80
2018-05-15T16:45:02.239Z,53.30
2018-05-15T16:47:29.759Z,53.70
2018-05-15T16:49:57.173Z,54.10
2018-05-15T16:52:24.637Z,54.60
2018-05-15T16:54:52.102Z,55.00
2018-05-15T16:57:19.545Z,55.20
2018-05-15T16:59:47.012Z,55.40
2018-05-15T17:02:14.925Z,55.70
2018-05-15T17:04:42.392Z,55.70
2018-05-15T17:07:09.841Z,56.00
2018-05-15T17:09:37.345Z,56.50
2018-05-15T17:12:04.796Z,57.00
2018-05-15T17:14:32.245Z,57.40
2018-05-15T17:16:59.710Z,57.60
2018-05-15T17:19:28.186Z,58.10
2018-05-15T17:21:55.646Z,58.10
2018-05-15T17:24:23.100Z,58.40
2018-05-15T17:26:50.610Z,58.60
2018-05-15T17:29:18.012Z,58.90
2018-05-15T17:31:45.468Z,59.20
2018-05-15T17:34:12.912Z,59.50
2018-05-15T17:36:40.373Z,59.50
2018-05-15T17:39:08.029Z,59.50
2018-05-15T17:41:35.480Z,59.50
2018-05-15T17:44:02.929Z,59.50
2018-05-15T17:46:30.392Z,59.40
2018-05-15T17:48:57.843Z,59.40
2018-05-15T17:51:25.296Z,59.60
2018-05-15T17:53:52.788Z,59.70
2018-05-15T17:56:20.244Z,59.60
2018-05-15T17:58:47.701Z,59.40
2018-05-15T18:01:15.148Z,59.30
2018-05-15T18:03:42.612Z,59.40
2018-05-15T18:06:10.066Z,59.50
2018-05-15T18:08:37.587Z,59.30
2018-05-15T18:11:04.976Z,59.20
2018-05-15T18:13:32.431Z,59.20
2018-05-15T18:15:59.880Z,59.20
2018-05-15T18:18:27.346Z,59.20
2018-05-15T18:20:54.805Z,59.30
2018-05-15T18:23:22.269Z,59.40
2018-05-15T18:25:49.709Z,59.40
2018-05-15T18:28:17.233Z,59.60
2018-05-15T18:30:44.685Z,59.60
2018-05-15T18:33:12.254Z,59.60
2018-05-15T18:35:39.609Z,59.70
2018-05-15T18:38:07.067Z,59.90
2018-05-15T18:40:34.516Z,60.00
2018-05-15T18:43:01.975Z,60.20
2018-05-15T18:45:29.483Z,60.30
2018-05-15T18:47:56.902Z,60.60
2018-05-15T18:50:24.361Z,60.50
2018-05-15T18:52:52.022Z,60.60
2018-05-15T18:55:19.491Z,60.90
2018-05-15T18:57:46.932Z,61.30
2018-05-15T19:00:14.393Z,61.30
2018-05-15T19:02:41.849Z,61.40
2018-05-15T19:05:09.304Z,61.50
2018-05-15T19:07:36.759Z,61.50
2018-05-15T19:10:04.557Z,61.60
2018-05-15T19:12:32.004Z,61.70
2018-05-15T19:14:59.467Z,61.70
2018-05-15T19:17:26.922Z,61.90
2018-05-15T19:19:54.388Z,62.00
2018-05-15T19:22:21.848Z,61.90
2018-05-15T19:24:49.300Z,61.80
2018-05-15T19:27:16.790Z,62.10
2018-05-15T19:29:44.217Z,62.30
2018-05-15T19:32:17.534Z,62.50
2018-05-15T19:34:50.640Z,62.70
2018-05-15T19:37:18.094Z,62.90
2018-05-15T19:39:46.325Z,63.10
2018-05-15T19:42:13.788Z,63.10
2018-05-15T19:44:41.238Z,63.10
2018-05-15T19:47:08.724Z,63.10
2018-05-15T19:49:36.957Z,63.10
2018-05-15T19:52:04.414Z,63.20
2018-05-15T19:54:31.865Z,63.20
2018-05-15T19:56:59.319Z,63.10
2018-05-15T19:59:26.770Z,63.00
2018-05-15T20:01:54.482Z,62.80
2018-05-15T20:04:21.845Z,62.70
2018-05-15T20:06:49.316Z,62.70
2018-05-15T20:09:16.765Z,62.60
2018-05-15T20:11:44.227Z,62.50
2018-05-15T20:14:11.685Z,62.60
2018-05-15T20:16:39.905Z,62.30
2018-05-15T20:19:07.352Z,62.30
2018-05-15T20:21:34.808Z,62.50
2018-05-15T20:24:02.258Z,62.80
2018-05-15T20:26:29.720Z,62.90
2018-05-15T20:28:57.172Z,63.20
2018-05-15T20:31:24.622Z,63.50
2018-05-15T20:33:52.076Z,63.90
2018-05-15T20:36:19.526Z,64.10
2018-05-15T20:38:46.993Z,64.40
2018-05-15T20:41:14.444Z,64.50
2018-05-15T20:43:41.901Z,64.60
2018-05-15T20:46:09.353Z,64.60
2018-05-15T20:48:36.809Z,64.80
2018-05-15T20:51:04.262Z,64.90
2018-05-15T20:53:32.484Z,65.00
2018-05-15T20:55:59.932Z,65.00
2018-05-15T20:58:27.394Z,64.70
2018-05-15T21:00:54.836Z,64.50
2018-05-15T21:03:22.308Z,64.60
2018-05-15T21:05:49.757Z,64.60
2018-05-15T21:08:17.214Z,64.50
2018-05-15T21:10:44.679Z,64.20
2018-05-15T21:13:12.193Z,64.10
2018-05-15T21:15:39.652Z,63.90
2018-05-15T21:18:07.105Z,63.70
2018-05-15T21:20:34.560Z,63.90
2018-05-15T21:23:02.483Z,63.80
2018-05-15T21:25:29.936Z,63.60
2018-05-15T21:27:57.395Z,63.40
2018-05-15T21:30:24.848Z,63.60
2018-05-15T21:32:52.309Z,63.30
2018-05-15T21:35:19.769Z,63.20
2018-05-15T21:37:47.214Z,63.10
2018-05-15T21:40:14.682Z,63.00
2018-05-15T21:42:42.359Z,63.00
2018-05-15T21:45:09.818Z,63.10
2018-05-15T21:47:37.264Z,63.30
2018-05-15T21:50:04.762Z,63.40
2018-05-15T21:52:32.980Z,63.60
2018-05-15T21:55:00.420Z,63.60
2018-05-15T21:57:27.882Z,63.50
2018-05-15T21:59:55.334Z,63.50
2018-05-15T22:02:22.797Z,63.50
2018-05-15T22:04:50.247Z,63.60
2018-05-15T22:07:17.704Z,63.80
2018-05-15T22:09:45.154Z,64.00
2018-05-15T22:12:24.498Z,64.00
2018-05-15T22:15:03.789Z,64.10
2018-05-15T22:17:43.136Z,64.40
2018-05-15T22:20:23.243Z,65.10
2018-05-15T22:22:50.208Z,65.00
2018-05-15T22:25:17.653Z,65.30
2018-05-15T22:27:45.430Z,65.30
2018-05-15T22:30:12.877Z,65.30
2018-05-15T22:32:40.337Z,65.30
2018-05-15T22:35:07.790Z,65.30
2018-05-15T22:37:35.251Z,65.30
2018-05-15T22:40:02.714Z,65.30
2018-05-15T22:42:30.169Z,65.30
2018-05-15T22:44:57.628Z,65.10
2018-05-15T22:47:25.102Z,65.40
2018-05-15T22:49:52.552Z,65.60
2018-05-15T22:52:20.006Z,65.90
2018-05-15T22:54:47.464Z,65.80
2018-05-15T22:57:14.916Z,66.10
2018-05-15T22:59:42.369Z,66.30
2018-05-15T23:02:09.824Z,66.10
2018-05-15T23:04:37.286Z,66.30
2018-05-15T23:07:04.738Z,66.40
2018-05-15T23:09:32.197Z,66.80
2018-05-15T23:11:59.640Z,66.90
2018-05-15T23:14:27.105Z,67.20
2018-05-15T23:16:54.561Z,67.40
2018-05-15T23:19:22.079Z,67.70
2018-05-15T23:21:49.526Z,67.80
2018-05-15T23:24:16.994Z,67.90
2018-05-15T23:26:44.453Z,67.70
2018-05-15T23:29:11.904Z,67.50
2018-05-15T23:31:39.352Z,67.40
2018-05-15T23:34:06.809Z,67.20
2018-05-15T23:36:34.252Z,67.10
2018-05-15T23:39:01.715Z,67.10
2018-05-15T23:41:29.157Z,66.90
2018-05-15T23:43:57.735Z,67.40
2018-05-15T23:46:25.189Z,67.40
2018-05-15T23:48:52.637Z,67.60
2018-05-15T23:51:20.092Z,67.70
2018-05-15T23:53:47.545Z,67.50
2018-05-15T23:56:14.996Z,67.50
2018-05-15T23:58:42.445Z,67.40
